Time;durP1;ratioP1;P1;durP2;ratioP2;P2;SDS_P1;SDS_P2;PMS_P1;PMS_P2;Temp;Humidity;BMP_temperature;BMP_pressure;BME280_temperature;BME280_humidity;BME280_pressure;Samples;Min_cycle;Max_cycle;Signal;HPM_P1;HPM_P2
2021/11/11 00:00:20;;;;;;;33.58;18.38;;;;;;;;;;5086043;28;20028;-86
2021/11/11 00:02:46;;;;;;;36.38;19.45;;;;;;;;;;5076338;28;20101;-86
2021/11/11 00:05:12;;;;;;;34.90;19.40;;;;;;;;;;5085421;28;20028;-82
2021/11/11 00:07:38;;;;;;;38.90;20.35;;;;;;;;;;5062627;28;20132;-83
2021/11/11 00:10:06;;;;;;;36.65;20.25;;;;;;;;;;5072241;28;20037;-83
2021/11/11 00:12:34;;;;;;;35.05;20.70;;;;;;;;;;5074186;28;20024;-83
2021/11/11 00:15:05;;;;;;;38.15;21.77;;;;;;;;;;5068090;28;20473;-85
2021/11/11 00:17:30;;;;;;;38.58;21.10;;;;;;;;;;5071406;28;20032;-83
2021/11/11 00:19:56;;;;;;;39.97;22.00;;;;;;;;;;5088004;28;20077;-83
2021/11/11 00:22:22;;;;;;;35.75;21.23;;;;;;;;;;5075391;28;20077;-83
2021/11/11 00:24:48;;;;;;;39.85;21.27;;;;;;;;;;5071933;28;20062;-82
2021/11/11 00:27:13;;;;;;;35.47;20.85;;;;;;;;;;5073978;28;20024;-82
2021/11/11 00:29:39;;;;;;;39.20;21.50;;;;;;;;;;5075375;28;20028;-83
2021/11/11 00:32:05;;;;;;;39.42;21.38;;;;;;;;;;5072032;28;20035;-82
2021/11/11 00:34:31;;;;;;;44.00;22.30;;;;;;;;;;5085124;28;20024;-82
2021/11/11 00:36:56;;;;;;;36.53;22.08;;;;;;;;;;5074058;28;20024;-86
2021/11/11 00:39:22;;;;;;;35.65;21.17;;;;;;;;;;5086097;28;20146;-82
2021/11/11 00:41:47;;;;;;;35.22;20.70;;;;;;;;;;5083788;28;20058;-83
2021/11/11 00:44:12;;;;;;;33.38;19.55;;;;;;;;;;5068583;28;20040;-83
2021/11/11 00:46:39;;;;;;;40.08;23.30;;;;;;;;;;5065633;28;20065;-83
2021/11/11 00:49:07;;;;;;;39.10;21.23;;;;;;;;;;5071077;28;20123;-83
2021/11/11 00:51:34;;;;;;;39.45;22.45;;;;;;;;;;5071235;28;20020;-82
2021/11/11 00:53:59;;;;;;;33.47;20.60;;;;;;;;;;5069861;28;20048;-82
2021/11/11 00:56:27;;;;;;;38.75;21.77;;;;;;;;;;5091271;28;20020;-82
2021/11/11 00:58:53;;;;;;;36.78;21.50;;;;;;;;;;5063477;28;20024;-82
2021/11/11 01:01:18;;;;;;;35.15;21.70;;;;;;;;;;5071946;28;20117;-83
2021/11/11 01:03:44;;;;;;;43.15;22.08;;;;;;;;;;5067903;28;20020;-82
2021/11/11 01:06:10;;;;;;;36.80;22.58;;;;;;;;;;5071845;28;20528;-86
2021/11/11 01:08:36;;;;;;;37.08;22.60;;;;;;;;;;5069740;28;20103;-82
2021/11/11 01:11:03;;;;;;;39.65;23.05;;;;;;;;;;5068085;28;20024;-83
2021/11/11 01:13:29;;;;;;;41.20;24.20;;;;;;;;;;5065429;28;20120;-82
2021/11/11 01:15:54;;;;;;;38.42;22.17;;;;;;;;;;5072184;28;20047;-82
2021/11/11 01:18:21;;;;;;;39.13;23.10;;;;;;;;;;5084307;28;20028;-83
2021/11/11 01:20:47;;;;;;;41.60;23.90;;;;;;;;;;5070625;28;20051;-83
2021/11/11 01:23:12;;;;;;;39.40;23.50;;;;;;;;;;5093123;28;20060;-83
2021/11/11 01:25:39;;;;;;;40.03;23.55;;;;;;;;;;5072271;28;20421;-82
2021/11/11 01:28:06;;;;;;;45.45;25.52;;;;;;;;;;5071123;28;20134;-82
2021/11/11 01:30:32;;;;;;;36.53;23.15;;;;;;;;;;5069624;28;20024;-82
2021/11/11 01:33:01;;;;;;;39.72;23.70;;;;;;;;;;5069393;28;20038;-82
2021/11/11 01:35:27;;;;;;;39.63;24.42;;;;;;;;;;5091673;28;20063;-86
2021/11/11 01:37:52;;;;;;;40.22;23.52;;;;;;;;;;5069490;28;20099;-82
2021/11/11 01:40:18;;;;;;;36.30;23.05;;;;;;;;;;5099161;28;20498;-82
2021/11/11 01:42:56;;;;;;;39.63;23.52;;;;;;;;;;5068965;28;20095;-85
2021/11/11 01:45:30;;;;;;;37.72;23.42;;;;;;;;;;5067007;28;20047;-83
2021/11/11 01:47:57;;;;;;;43.47;24.40;;;;;;;;;;5091656;28;20035;-85
2021/11/11 01:50:23;;;;;;;39.08;23.15;;;;;;;;;;5068161;28;20477;-82
2021/11/11 01:52:49;;;;;;;40.97;23.45;;;;;;;;;;5071070;28;20055;-82
2021/11/11 01:55:14;;;;;;;38.10;22.75;;;;;;;;;;5072390;28;20053;-83
2021/11/11 01:57:40;;;;;;;38.00;22.67;;;;;;;;;;5069722;28;20020;-85
2021/11/11 02:00:12;;;;;;;38.30;22.60;;;;;;;;;;5066655;28;20027;-82
2021/11/11 02:02:38;;;;;;;38.43;23.50;;;;;;;;;;5084859;28;20028;-83
2021/11/11 02:05:04;;;;;;;37.38;22.02;;;;;;;;;;5066679;28;20476;-82
2021/11/11 02:07:29;;;;;;;38.22;22.45;;;;;;;;;;5087368;28;20020;-83
2021/11/11 02:09:54;;;;;;;37.10;21.63;;;;;;;;;;5071688;28;20048;-82
2021/11/11 02:12:21;;;;;;;39.35;23.90;;;;;;;;;;5073999;28;20055;-85
2021/11/11 02:14:47;;;;;;;35.47;21.73;;;;;;;;;;5067028;28;20043;-82
2021/11/11 02:17:13;;;;;;;35.00;20.88;;;;;;;;;;5071971;28;20024;-86
2021/11/11 02:19:57;;;;;;;35.55;21.70;;;;;;;;;;5087924;28;20499;-82
2021/11/11 02:22:22;;;;;;;34.95;21.00;;;;;;;;;;5084065;28;20028;-85
2021/11/11 02:24:48;;;;;;;37.00;20.58;;;;;;;;;;5068655;28;20488;-83
2021/11/11 02:27:13;;;;;;;37.08;20.77;;;;;;;;;;5088578;28;20481;-81
2021/11/11 02:29:39;;;;;;;34.38;20.30;;;;;;;;;;5068625;28;20427;-82
2021/11/11 02:32:05;;;;;;;35.28;19.13;;;;;;;;;;5070629;28;20046;-83
2021/11/11 02:34:30;;;;;;;40.03;19.20;;;;;;;;;;5071129;28;20586;-82
2021/11/11 02:36:57;;;;;;;37.25;19.95;;;;;;;;;;5073583;28;20032;-85
2021/11/11 02:39:23;;;;;;;35.22;19.88;;;;;;;;;;5065799;28;20034;-82
2021/11/11 02:41:48;;;;;;;36.42;19.17;;;;;;;;;;5074965;28;20480;-82
2021/11/11 02:44:15;;;;;;;34.65;18.52;;;;;;;;;;5089028;28;20102;-83
2021/11/11 02:46:40;;;;;;;33.30;18.67;;;;;;;;;;5072047;28;20058;-82
2021/11/11 02:49:06;;;;;;;34.50;19.10;;;;;;;;;;5069686;28;20055;-86
2021/11/11 02:51:31;;;;;;;33.33;18.05;;;;;;;;;;5087004;28;20091;-82
2021/11/11 02:53:56;;;;;;;30.23;17.42;;;;;;;;;;5070417;28;20031;-85
2021/11/11 02:56:22;;;;;;;34.63;17.48;;;;;;;;;;5072058;28;20027;-82
2021/11/11 02:58:47;;;;;;;33.85;19.05;;;;;;;;;;5073963;28;20087;-83
2021/11/11 03:01:13;;;;;;;33.42;18.58;;;;;;;;;;5074994;28;20472;-86
2021/11/11 03:03:40;;;;;;;36.17;18.98;;;;;;;;;;5064934;28;20161;-83
2021/11/11 03:06:05;;;;;;;30.38;18.50;;;;;;;;;;5071271;28;20107;-82
2021/11/11 03:08:31;;;;;;;32.47;17.45;;;;;;;;;;5072421;28;20107;-82
2021/11/11 03:10:56;;;;;;;29.52;17.20;;;;;;;;;;5075688;28;20508;-82
2021/11/11 03:13:22;;;;;;;31.45;17.67;;;;;;;;;;5073235;28;20515;-82
2021/11/11 03:15:49;;;;;;;32.20;18.45;;;;;;;;;;5074988;28;20031;-82
2021/11/11 03:18:14;;;;;;;31.25;17.80;;;;;;;;;;5074511;28;20024;-86
2021/11/11 03:20:40;;;;;;;30.65;17.70;;;;;;;;;;5088664;28;20023;-82
2021/11/11 03:23:05;;;;;;;31.10;17.55;;;;;;;;;;5070328;28;20377;-85
2021/11/11 03:25:32;;;;;;;34.15;17.73;;;;;;;;;;5081989;28;20023;-86
2021/11/11 03:27:59;;;;;;;31.60;18.08;;;;;;;;;;5070551;28;20034;-86
2021/11/11 03:30:26;;;;;;;31.95;18.75;;;;;;;;;;5096097;28;20031;-82
2021/11/11 03:32:53;;;;;;;34.38;18.58;;;;;;;;;;5073878;28;20492;-86
2021/11/11 03:35:18;;;;;;;33.13;17.60;;;;;;;;;;5074424;28;20041;-82
2021/11/11 03:37:45;;;;;;;35.53;18.98;;;;;;;;;;5065956;28;20024;-86
2021/11/11 03:40:17;;;;;;;32.30;18.90;;;;;;;;;;5089023;28;20476;-82
2021/11/11 03:42:45;;;;;;;34.63;18.52;;;;;;;;;;5067015;28;20025;-86
2021/11/11 03:45:10;;;;;;;31.42;18.75;;;;;;;;;;5083384;28;20047;-82
2021/11/11 03:47:36;;;;;;;32.28;18.55;;;;;;;;;;5068951;28;20485;-83
2021/11/11 03:50:05;;;;;;;33.55;19.83;;;;;;;;;;5069948;28;20031;-82
2021/11/11 03:52:32;;;;;;;32.90;19.58;;;;;;;;;;5086467;28;20035;-83
2021/11/11 03:54:57;;;;;;;31.00;19.67;;;;;;;;;;5072315;28;20036;-82
2021/11/11 03:57:23;;;;;;;32.03;19.38;;;;;;;;;;5075301;28;20116;-82
2021/11/11 03:59:50;;;;;;;33.25;20.73;;;;;;;;;;5089041;28;20097;-82
2021/11/11 04:02:16;;;;;;;33.97;20.40;;;;;;;;;;5071861;28;20032;-82
2021/11/11 04:04:42;;;;;;;34.20;19.40;;;;;;;;;;5067499;28;20020;-82
2021/11/11 04:07:07;;;;;;;34.22;19.88;;;;;;;;;;5075750;28;20442;-82
2021/11/11 04:09:33;;;;;;;35.95;20.45;;;;;;;;;;5085913;28;20473;-82
2021/11/11 04:12:01;;;;;;;35.58;19.67;;;;;;;;;;5083102;28;20073;-85
2021/11/11 04:14:26;;;;;;;36.63;19.23;;;;;;;;;;5091562;28;20027;-82
2021/11/11 04:16:51;;;;;;;32.63;18.15;;;;;;;;;;5064755;28;20111;-85
2021/11/11 04:19:17;;;;;;;33.88;19.35;;;;;;;;;;5065895;28;20459;-83
2021/11/11 04:21:43;;;;;;;31.58;19.55;;;;;;;;;;5063090;28;20021;-83
2021/11/11 04:24:10;;;;;;;35.38;19.38;;;;;;;;;;5078092;28;20589;-82
2021/11/11 04:26:43;;;;;;;30.98;19.23;;;;;;;;;;5068975;28;20115;-83
2021/11/11 04:29:15;;;;;;;30.88;18.08;;;;;;;;;;5074527;28;20027;-85
2021/11/11 04:31:49;;;;;;;33.40;18.67;;;;;;;;;;5071227;28;20024;-82
2021/11/11 04:34:17;;;;;;;32.08;18.15;;;;;;;;;;5068894;28;20425;-85
2021/11/11 05:03:47;;;;;;;29.80;17.73;;;;;;;;;;5089742;28;20024;-82
2021/11/11 05:06:13;;;;;;;30.83;17.80;;;;;;;;;;5070172;28;20025;-82
2021/11/11 05:08:39;;;;;;;34.45;17.75;;;;;;;;;;5074265;28;20508;-82
2021/11/11 05:11:04;;;;;;;32.42;18.42;;;;;;;;;;5072046;28;20071;-85
2021/11/11 05:13:30;;;;;;;28.15;16.88;;;;;;;;;;5082479;28;20024;-82
2021/11/11 05:15:56;;;;;;;32.80;17.13;;;;;;;;;;5072446;28;20107;-82
2021/11/11 05:18:21;;;;;;;34.15;18.33;;;;;;;;;;5073123;28;20027;-82
2021/11/11 05:20:47;;;;;;;28.85;17.52;;;;;;;;;;5071822;28;20028;-83
2021/11/11 05:23:12;;;;;;;30.75;16.67;;;;;;;;;;5068134;28;20024;-82
2021/11/11 05:25:38;;;;;;;33.97;17.55;;;;;;;;;;5072375;28;20116;-85
2021/11/11 05:28:04;;;;;;;28.63;17.65;;;;;;;;;;5081582;28;20050;-86
2021/11/11 05:30:30;;;;;;;27.98;16.92;;;;;;;;;;5070328;28;20020;-82
2021/11/11 05:32:56;;;;;;;31.00;17.50;;;;;;;;;;5081645;28;20503;-82
2021/11/11 05:35:21;;;;;;;29.33;17.40;;;;;;;;;;5067016;28;20056;-82
2021/11/11 05:37:48;;;;;;;31.27;17.58;;;;;;;;;;5072055;28;20028;-83
2021/11/11 05:40:15;;;;;;;27.92;16.83;;;;;;;;;;5089161;28;20031;-82
2021/11/11 05:42:40;;;;;;;28.42;17.15;;;;;;;;;;5071664;28;20024;-85
2021/11/11 05:45:07;;;;;;;30.65;18.27;;;;;;;;;;5067031;28;20041;-82
2021/11/11 05:47:33;;;;;;;32.25;17.50;;;;;;;;;;5083376;28;20027;-85
2021/11/11 05:49:58;;;;;;;30.48;17.13;;;;;;;;;;5073159;28;20032;-82
2021/11/11 05:52:23;;;;;;;33.45;16.38;;;;;;;;;;5085758;28;20025;-82
2021/11/11 05:54:49;;;;;;;30.42;17.02;;;;;;;;;;5088112;28;20039;-85
2021/11/11 05:57:15;;;;;;;31.08;17.13;;;;;;;;;;5068812;28;20024;-82
2021/11/11 05:59:40;;;;;;;34.00;17.52;;;;;;;;;;5068441;28;20027;-82
2021/11/11 06:02:11;;;;;;;28.42;17.20;;;;;;;;;;5088471;28;20035;-82
2021/11/11 06:04:38;;;;;;;29.38;17.98;;;;;;;;;;5086732;28;20028;-85
2021/11/11 06:07:04;;;;;;;32.63;18.60;;;;;;;;;;5068389;28;20391;-82
2021/11/11 06:09:29;;;;;;;28.77;17.55;;;;;;;;;;5088407;28;20024;-83
2021/11/11 06:11:55;;;;;;;30.63;18.33;;;;;;;;;;5071155;28;20078;-82
2021/11/11 06:14:20;;;;;;;31.15;17.35;;;;;;;;;;5088000;28;20453;-82
2021/11/11 06:16:46;;;;;;;31.70;16.73;;;;;;;;;;5068379;28;20081;-85
2021/11/11 06:19:11;;;;;;;29.50;17.77;;;;;;;;;;5069445;28;20020;-83
2021/11/11 06:21:38;;;;;;;31.88;17.45;;;;;;;;;;5075000;28;20034;-82
2021/11/11 06:24:03;;;;;;;30.35;17.10;;;;;;;;;;5076751;28;20046;-82
2021/11/11 06:26:29;;;;;;;31.52;17.27;;;;;;;;;;5075336;28;20024;-82
2021/11/11 06:28:54;;;;;;;29.67;17.67;;;;;;;;;;5086529;28;20558;-81
2021/11/11 06:31:20;;;;;;;32.53;18.60;;;;;;;;;;5071242;28;20054;-82
2021/11/11 06:33:45;;;;;;;29.60;17.98;;;;;;;;;;5075015;28;20037;-83
2021/11/11 06:36:12;;;;;;;30.25;17.73;;;;;;;;;;5064318;28;20068;-83
2021/11/11 06:38:37;;;;;;;32.58;18.13;;;;;;;;;;5068509;28;20020;-82
2021/11/11 06:41:03;;;;;;;32.25;18.30;;;;;;;;;;5076673;28;20100;-82
2021/11/11 06:43:29;;;;;;;32.13;18.33;;;;;;;;;;5072758;28;20973;-82
2021/11/11 06:45:55;;;;;;;30.52;18.25;;;;;;;;;;5070464;28;20048;-86
2021/11/11 06:48:20;;;;;;;30.27;17.75;;;;;;;;;;5084548;28;20060;-83
2021/11/11 06:50:47;;;;;;;31.40;17.85;;;;;;;;;;5069480;28;20024;-83
2021/11/11 06:53:15;;;;;;;33.35;18.88;;;;;;;;;;5068843;28;20031;-82
2021/11/11 06:55:42;;;;;;;29.33;16.85;;;;;;;;;;5073585;28;20032;-85
2021/11/11 06:58:08;;;;;;;32.30;18.58;;;;;;;;;;5069566;28;20123;-85
2021/11/11 07:00:35;;;;;;;35.80;19.42;;;;;;;;;;5085578;28;20063;-85
2021/11/11 07:03:00;;;;;;;31.63;19.08;;;;;;;;;;5093626;28;20024;-82
2021/11/11 07:05:25;;;;;;;29.88;19.02;;;;;;;;;;5072926;28;20016;-83
2021/11/11 07:07:51;;;;;;;34.25;20.83;;;;;;;;;;5079143;28;20041;-82
2021/11/11 07:10:17;;;;;;;38.38;21.50;;;;;;;;;;5086328;28;20024;-82
2021/11/11 07:12:44;;;;;;;36.65;20.77;;;;;;;;;;5070725;28;20028;-86
2021/11/11 07:15:11;;;;;;;30.67;19.92;;;;;;;;;;5070955;28;20036;-82
2021/11/11 07:17:38;;;;;;;33.95;20.42;;;;;;;;;;5070438;28;20035;-82
2021/11/11 07:20:06;;;;;;;31.85;19.58;;;;;;;;;;5090617;28;20016;-81
2021/11/11 07:22:32;;;;;;;35.35;20.70;;;;;;;;;;5071430;28;20507;-82
2021/11/11 07:24:57;;;;;;;33.95;21.00;;;;;;;;;;5080186;28;20036;-82
2021/11/11 07:27:23;;;;;;;37.53;21.95;;;;;;;;;;5065303;28;20020;-86
2021/11/11 07:29:48;;;;;;;35.15;20.83;;;;;;;;;;5089016;28;20094;-82
2021/11/11 07:32:14;;;;;;;33.50;21.27;;;;;;;;;;5068648;28;20059;-83
2021/11/11 07:34:39;;;;;;;35.75;21.83;;;;;;;;;;5069969;28;20028;-85
2021/11/11 07:37:05;;;;;;;37.85;21.00;;;;;;;;;;5068077;28;20035;-82
2021/11/11 07:39:32;;;;;;;33.70;20.80;;;;;;;;;;5072357;28;20020;-82
2021/11/11 07:42:00;;;;;;;34.65;20.73;;;;;;;;;;5077681;28;20129;-83
2021/11/11 07:44:25;;;;;;;34.33;21.23;;;;;;;;;;5067692;28;20044;-82
2021/11/11 07:46:51;;;;;;;36.13;20.40;;;;;;;;;;5094467;28;20020;-81
2021/11/11 07:49:16;;;;;;;33.88;20.67;;;;;;;;;;5069420;28;20485;-85
2021/11/11 07:51:42;;;;;;;35.90;21.10;;;;;;;;;;5071769;28;20436;-82
2021/11/11 07:54:07;;;;;;;38.35;21.75;;;;;;;;;;5093081;28;20090;-82
2021/11/11 07:56:37;;;;;;;37.10;21.77;;;;;;;;;;5090020;28;20392;-84
2021/11/11 07:59:04;;;;;;;39.35;21.60;;;;;;;;;;5063274;28;20016;-82
2021/11/11 08:01:30;;;;;;;37.63;21.83;;;;;;;;;;5062245;28;20549;-82
2021/11/11 08:03:55;;;;;;;37.90;20.77;;;;;;;;;;5059907;28;20020;-85
2021/11/11 08:06:21;;;;;;;34.58;21.90;;;;;;;;;;5079358;28;20074;-82
2021/11/11 08:08:46;;;;;;;37.80;22.75;;;;;;;;;;5065728;28;20454;-82
2021/11/11 08:11:12;;;;;;;39.33;23.00;;;;;;;;;;5075932;28;20548;-82
2021/11/11 08:13:37;;;;;;;35.58;21.15;;;;;;;;;;5079514;28;20032;-82
2021/11/11 08:16:03;;;;;;;39.30;22.73;;;;;;;;;;5078629;28;20446;-86
2021/11/11 08:18:28;;;;;;;37.28;23.25;;;;;;;;;;5075237;28;20482;-82
2021/11/11 08:20:54;;;;;;;32.17;21.08;;;;;;;;;;5072873;28;20474;-83
2021/11/11 08:23:20;;;;;;;35.83;22.17;;;;;;;;;;5075734;28;20430;-86
2021/11/11 08:25:47;;;;;;;35.53;21.83;;;;;;;;;;5072513;28;20028;-82
2021/11/11 08:28:14;;;;;;;32.15;20.27;;;;;;;;;;5086174;28;20047;-82
2021/11/11 08:30:40;;;;;;;34.90;20.35;;;;;;;;;;5089231;28;20062;-82
2021/11/11 08:33:06;;;;;;;32.65;20.65;;;;;;;;;;5084982;28;20041;-82
2021/11/11 08:35:31;;;;;;;37.47;22.60;;;;;;;;;;5083941;28;20035;-86
2021/11/11 08:37:57;;;;;;;37.42;21.25;;;;;;;;;;5073504;28;20024;-82
2021/11/11 08:40:23;;;;;;;33.70;21.13;;;;;;;;;;5082592;28;20025;-82
2021/11/11 08:42:53;;;;;;;31.33;20.45;;;;;;;;;;5069988;28;20039;-82
2021/11/11 08:45:19;;;;;;;41.53;21.67;;;;;;;;;;5089958;28;20069;-82
2021/11/11 08:47:46;;;;;;;33.50;21.88;;;;;;;;;;5089084;28;20012;-83
2021/11/11 08:50:12;;;;;;;36.70;22.92;;;;;;;;;;5095235;28;20024;-82
2021/11/11 08:52:44;;;;;;;36.60;21.88;;;;;;;;;;5069843;28;20028;-82
2021/11/11 08:55:21;;;;;;;37.05;21.85;;;;;;;;;;5093807;28;20377;-85
2021/11/11 08:57:47;;;;;;;34.53;21.75;;;;;;;;;;5073242;28;20028;-86
2021/11/11 09:00:17;;;;;;;36.25;22.33;;;;;;;;;;5083475;28;20021;-85
2021/11/11 09:02:45;;;;;;;38.40;21.92;;;;;;;;;;5074286;28;20047;-83
2021/11/11 09:05:10;;;;;;;36.83;21.33;;;;;;;;;;5092555;28;20024;-81
2021/11/11 09:07:39;;;;;;;36.50;20.98;;;;;;;;;;5092185;28;20374;-82
2021/11/11 09:10:10;;;;;;;37.78;21.27;;;;;;;;;;5086830;28;20055;-82
2021/11/11 09:12:35;;;;;;;38.67;22.08;;;;;;;;;;5072846;28;20119;-81
2021/11/11 09:15:03;;;;;;;37.67;21.35;;;;;;;;;;5069642;28;20466;-82
2021/11/11 09:17:29;;;;;;;37.40;22.23;;;;;;;;;;5075730;28;20031;-86
2021/11/11 09:19:54;;;;;;;36.33;21.77;;;;;;;;;;5076001;28;20020;-85
2021/11/11 09:22:20;;;;;;;35.83;20.60;;;;;;;;;;5072237;28;20028;-82
2021/11/11 09:24:46;;;;;;;36.10;22.00;;;;;;;;;;5085553;28;20472;-87
2021/11/11 09:27:11;;;;;;;33.97;21.80;;;;;;;;;;5082764;28;20213;-82
2021/11/11 09:29:36;;;;;;;35.00;21.42;;;;;;;;;;5066426;28;20020;-82
2021/11/11 09:32:02;;;;;;;36.22;21.15;;;;;;;;;;5086448;28;20067;-82
2021/11/11 09:34:28;;;;;;;34.25;20.98;;;;;;;;;;5069549;28;20024;-82
2021/11/11 09:36:53;;;;;;;33.63;20.40;;;;;;;;;;5075319;28;20515;-82
2021/11/11 09:39:21;;;;;;;37.33;22.20;;;;;;;;;;5061055;28;20021;-86
2021/11/11 09:41:46;;;;;;;30.98;19.58;;;;;;;;;;5068700;28;20035;-81
2021/11/11 09:44:11;;;;;;;38.28;22.58;;;;;;;;;;5073287;28;20052;-82
2021/11/11 09:46:37;;;;;;;32.28;20.45;;;;;;;;;;5071865;28;20020;-82
2021/11/11 09:49:05;;;;;;;33.15;20.05;;;;;;;;;;5079344;28;20025;-82
2021/11/11 09:51:31;;;;;;;29.40;19.23;;;;;;;;;;5073051;28;20069;-82
2021/11/11 09:54:02;;;;;;;31.20;20.23;;;;;;;;;;5089530;28;20111;-81
2021/11/11 09:59:12;;;;;;;31.30;20.48;;;;;;;;;;5089499;28;20562;-85
2021/11/11 10:01:38;;;;;;;34.97;21.35;;;;;;;;;;5072133;28;20024;-82
2021/11/11 10:04:03;;;;;;;34.83;21.90;;;;;;;;;;5076047;28;20082;-82
2021/11/11 10:06:31;;;;;;;36.13;21.52;;;;;;;;;;5076454;28;20032;-82
2021/11/11 10:09:09;;;;;;;34.80;20.95;;;;;;;;;;5077847;28;20550;-87
2021/11/11 10:11:49;;;;;;;28.10;18.42;;;;;;;;;;5070640;28;20502;-82
2021/11/11 10:14:18;;;;;;;34.22;21.50;;;;;;;;;;5081904;28;20111;-85
2021/11/11 10:16:47;;;;;;;34.20;20.38;;;;;;;;;;5088999;28;20024;-82
2021/11/11 10:19:14;;;;;;;31.73;20.88;;;;;;;;;;5076077;28;20024;-82
2021/11/11 10:21:54;;;;;;;35.20;20.58;;;;;;;;;;5068660;28;20028;-82
2021/11/11 10:24:47;;;;;;;32.92;20.13;;;;;;;;;;5060742;28;20033;-85
2021/11/11 10:27:38;;;;;;;34.22;20.40;;;;;;;;;;5071586;28;20528;-83
2021/11/11 10:30:31;;;;;;;33.78;20.33;;;;;;;;;;5077373;28;20040;-85
2021/11/11 10:33:14;;;;;;;35.30;21.25;;;;;;;;;;5092363;28;20024;-82
2021/11/11 10:36:06;;;;;;;32.55;20.15;;;;;;;;;;5081414;28;20107;-82
2021/11/11 10:38:31;;;;;;;32.38;20.38;;;;;;;;;;5074326;28;20047;-86
2021/11/11 10:40:57;;;;;;;34.95;21.90;;;;;;;;;;5068792;28;20032;-82
2021/11/11 10:43:27;;;;;;;35.90;21.55;;;;;;;;;;5085143;28;20023;-82
2021/11/11 10:45:54;;;;;;;30.70;20.67;;;;;;;;;;5076900;28;20058;-81
2021/11/11 10:48:23;;;;;;;34.47;20.80;;;;;;;;;;5070492;28;20050;-85
2021/11/11 10:50:52;;;;;;;30.10;20.00;;;;;;;;;;5088284;28;20028;-83
2021/11/11 10:53:24;;;;;;;30.65;19.92;;;;;;;;;;5063512;28;20039;-82
2021/11/11 10:55:55;;;;;;;33.45;19.90;;;;;;;;;;5073824;28;20534;-82
2021/11/11 10:58:24;;;;;;;31.38;20.25;;;;;;;;;;5066026;28;20077;-82
2021/11/11 11:00:49;;;;;;;32.17;20.95;;;;;;;;;;5071131;28;20039;-82
2021/11/11 11:03:46;;;;;;;32.92;19.83;;;;;;;;;;5069807;28;20507;-82
2021/11/11 11:06:13;;;;;;;31.45;19.48;;;;;;;;;;5076133;28;20073;-81
2021/11/11 11:08:47;;;;;;;36.70;20.38;;;;;;;;;;5098555;28;20053;-82
2021/11/11 11:11:22;;;;;;;37.25;20.83;;;;;;;;;;5087333;28;20106;-82
2021/11/11 11:13:52;;;;;;;33.30;19.45;;;;;;;;;;5091233;28;20028;-82
2021/11/11 11:16:20;;;;;;;35.10;20.23;;;;;;;;;;5084423;28;20024;-82
2021/11/11 11:18:47;;;;;;;31.27;19.85;;;;;;;;;;5062434;28;20028;-82
2021/11/11 11:21:17;;;;;;;32.90;20.17;;;;;;;;;;5090169;28;20093;-81
2021/11/11 11:23:45;;;;;;;33.45;20.65;;;;;;;;;;5069508;28;20395;-86
2021/11/11 11:26:19;;;;;;;29.70;19.83;;;;;;;;;;5086107;28;20028;-82
2021/11/11 11:29:10;;;;;;;33.33;19.63;;;;;;;;;;5073235;28;20610;-86
2021/11/11 11:34:32;;;;;;;30.73;19.42;;;;;;;;;;5086248;28;20024;-81
2021/11/11 11:36:59;;;;;;;32.08;19.48;;;;;;;;;;5071538;28;20036;-82
2021/11/11 11:39:38;;;;;;;30.38;19.63;;;;;;;;;;5075039;28;20012;-81
2021/11/11 11:42:12;;;;;;;28.52;18.80;;;;;;;;;;5073236;28;20023;-82
2021/11/11 11:44:51;;;;;;;28.90;18.67;;;;;;;;;;5068960;28;20044;-86
2021/11/11 11:47:33;;;;;;;29.02;17.73;;;;;;;;;;5070471;28;20028;-81
2021/11/11 11:50:06;;;;;;;30.95;18.85;;;;;;;;;;5088849;28;20028;-81
2021/11/11 11:52:34;;;;;;;30.92;18.90;;;;;;;;;;5070875;28;20081;-82
2021/11/11 11:55:08;;;;;;;27.48;18.10;;;;;;;;;;5088866;28;20078;-86
2021/11/11 11:57:48;;;;;;;27.77;17.75;;;;;;;;;;5089554;28;20017;-82
2021/11/11 12:06:07;;;;;;;33.17;19.90;;;;;;;;;;5091417;28;20032;-82
2021/11/11 12:08:28;;;;;;;29.02;18.38;;;;;;;;;;5079218;28;20058;-85
2021/11/11 12:11:37;;;;;;;33.28;20.15;;;;;;;;;;5085066;28;20472;-82
2021/11/11 12:39:56;;;;;;;40.90;23.38;;;;;;;;;;5089278;28;20072;-83
2021/11/11 12:42:40;;;;;;;39.08;23.08;;;;;;;;;;5091080;28;20107;-82
2021/11/11 12:45:25;;;;;;;38.88;23.23;;;;;;;;;;5070688;28;20052;-82
2021/11/11 12:48:19;;;;;;;37.13;23.05;;;;;;;;;;5073279;28;20078;-82
2021/11/11 12:51:00;;;;;;;;;;;;;;;;;;5070114;28;20401;-82
2021/11/11 12:53:28;;;;;;;32.65;18.45;;;;;;;;;;5066160;28;19977;-83
2021/11/11 12:56:00;;;;;;;33.92;19.33;;;;;;;;;;5072386;28;20488;-82
2021/11/11 12:58:46;;;;;;;30.92;19.42;;;;;;;;;;5087457;28;20492;-82
2021/11/11 13:01:16;;;;;;;30.58;19.33;;;;;;;;;;5071345;28;20078;-82
2021/11/11 13:03:49;;;;;;;34.70;20.02;;;;;;;;;;5079628;28;20055;-83
2021/11/11 13:06:32;;;;;;;33.40;19.35;;;;;;;;;;5064557;28;20051;-85
2021/11/11 13:09:00;;;;;;;33.88;19.40;;;;;;;;;;5071849;28;20038;-82
2021/11/11 13:11:34;;;;;;;30.30;18.48;;;;;;;;;;5076523;28;20015;-84
2021/11/11 13:14:24;;;;;;;31.23;18.40;;;;;;;;;;5068462;28;20024;-82
2021/11/11 13:17:14;;;;;;;28.17;17.58;;;;;;;;;;5063151;28;20046;-82
2021/11/11 13:19:48;;;;;;;30.65;18.17;;;;;;;;;;5081690;28;20039;-82
2021/11/11 13:22:22;;;;;;;32.30;19.15;;;;;;;;;;5068168;28;20035;-81
2021/11/11 13:25:04;;;;;;;30.60;18.10;;;;;;;;;;5068874;28;20028;-86
2021/11/11 15:17:13;;;;;;;29.75;17.95;;;;;;;;;;5079770;28;20041;-82
2021/11/11 16:01:11;;;;;;;29.65;19.52;;;;;;;;;;5083983;28;20086;-82
2021/11/11 16:20:04;;;;;;;28.58;18.77;;;;;;;;;;5080428;28;20036;-82
2021/11/11 16:25:36;;;;;;;31.88;21.05;;;;;;;;;;5087193;28;20031;-83
2021/11/11 16:28:02;;;;;;;31.52;21.83;;;;;;;;;;5068709;28;20028;-83
2021/11/11 16:30:28;;;;;;;32.40;20.50;;;;;;;;;;5066253;28;20594;-84
2021/11/11 16:32:53;;;;;;;27.08;19.55;;;;;;;;;;5066356;28;20437;-82
2021/11/11 16:35:22;;;;;;;31.65;19.63;;;;;;;;;;5065155;28;20024;-82
2021/11/11 16:37:48;;;;;;;28.25;20.13;;;;;;;;;;5062167;28;20170;-83
2021/11/11 16:40:17;;;;;;;29.13;19.70;;;;;;;;;;5057299;28;20139;-82
2021/11/11 16:42:42;;;;;;;29.55;19.65;;;;;;;;;;5084634;28;20117;-84
2021/11/11 16:45:08;;;;;;;32.67;20.15;;;;;;;;;;5093484;28;20531;-81
2021/11/11 16:47:34;;;;;;;32.50;20.98;;;;;;;;;;5068176;28;20491;-81
2021/11/11 16:49:59;;;;;;;29.83;21.35;;;;;;;;;;5090847;28;20400;-84
2021/11/11 16:52:27;;;;;;;32.63;21.05;;;;;;;;;;5071235;28;20032;-81
2021/11/11 16:54:52;;;;;;;29.75;19.92;;;;;;;;;;5081943;28;20404;-81
2021/11/11 16:57:18;;;;;;;29.85;19.05;;;;;;;;;;5072328;28;20030;-81
2021/11/11 16:59:44;;;;;;;33.35;20.33;;;;;;;;;;5089086;28;20035;-81
2021/11/11 17:02:09;;;;;;;27.27;20.65;;;;;;;;;;5071770;28;20023;-85
2021/11/11 17:04:35;;;;;;;32.53;19.85;;;;;;;;;;5072438;28;20473;-81
2021/11/11 17:07:00;;;;;;;38.45;20.00;;;;;;;;;;5084074;28;20111;-81
2021/11/11 17:09:26;;;;;;;28.05;19.50;;;;;;;;;;5065187;28;20063;-81
2021/11/11 17:11:51;;;;;;;31.23;19.98;;;;;;;;;;5090602;28;20024;-82
2021/11/11 17:14:17;;;;;;;28.20;19.92;;;;;;;;;;5071328;28;20028;-82
2021/11/11 17:16:48;;;;;;;26.67;19.13;;;;;;;;;;5074235;28;20388;-84
2021/11/11 17:19:14;;;;;;;28.70;19.13;;;;;;;;;;5065038;28;20440;-85
2021/11/11 17:21:44;;;;;;;30.67;20.27;;;;;;;;;;5064058;28;20027;-86
2021/11/11 17:24:14;;;;;;;27.23;19.45;;;;;;;;;;5065334;28;20028;-85
2021/11/11 17:26:45;;;;;;;31.42;19.33;;;;;;;;;;5072952;28;20032;-85
2021/11/11 17:29:14;;;;;;;26.27;19.08;;;;;;;;;;5064884;28;20031;-84
2021/11/11 17:31:42;;;;;;;31.33;21.23;;;;;;;;;;5067228;28;20047;-85
2021/11/11 17:34:08;;;;;;;31.45;20.45;;;;;;;;;;5065173;28;20027;-81
2021/11/11 17:36:33;;;;;;;30.85;21.13;;;;;;;;;;5066548;28;20472;-81
2021/11/11 17:38:59;;;;;;;29.67;20.30;;;;;;;;;;5066584;28;20043;-82
2021/11/11 17:41:25;;;;;;;37.40;21.77;;;;;;;;;;5061698;28;20491;-85
2021/11/11 17:43:52;;;;;;;34.80;21.77;;;;;;;;;;5064306;28;20033;-81
2021/11/11 17:46:24;;;;;;;35.92;22.50;;;;;;;;;;5065763;28;20027;-81
2021/11/11 17:48:53;;;;;;;37.63;22.17;;;;;;;;;;5069852;28;20376;-81
2021/11/11 17:51:39;;;;;;;33.72;22.13;;;;;;;;;;5067158;28;20507;-80
2021/11/11 17:54:14;;;;;;;30.52;20.73;;;;;;;;;;5069028;28;20060;-81
2021/11/11 17:56:45;;;;;;;32.05;22.75;;;;;;;;;;5079582;28;20083;-81
2021/11/11 17:59:11;;;;;;;35.85;22.00;;;;;;;;;;5067234;28;20027;-83
2021/11/11 18:01:36;;;;;;;34.65;21.63;;;;;;;;;;5071468;28;20028;-80
2021/11/11 18:04:02;;;;;;;35.33;21.33;;;;;;;;;;5070453;28;20047;-80
2021/11/11 18:06:34;;;;;;;32.92;19.80;;;;;;;;;;5084741;28;20058;-81
2021/11/11 18:09:06;;;;;;;31.38;20.42;;;;;;;;;;5066185;28;20035;-84
2021/11/11 18:11:33;;;;;;;32.25;19.55;;;;;;;;;;5081010;28;20029;-81
2021/11/11 18:14:05;;;;;;;32.00;21.23;;;;;;;;;;5087690;28;20055;-84
2021/11/11 18:16:35;;;;;;;34.00;20.80;;;;;;;;;;5068409;28;20102;-81
2021/11/11 18:19:01;;;;;;;33.08;21.17;;;;;;;;;;5075188;28;20016;-85